Time,TemperatureF,DewpointF,PressureIn,WindDirection,WindDirectionDegrees,WindSpeedMPH,WindSpeedGustMPH,Humidity,HourlyPrecipIn,Conditions,Clouds,dailyrainin,SoftwareType,DateUTC
2013-07-05 00:12:00,66.0,42.0,-100.00,North,-999,-999.0,-999.0,41,-99.99,,,-99.99,,2013-07-05 07:12:00,
2013-07-05 00:33:00,66.0,42.0,-100.00,NNW,347,9.0,18.0,41,-99.99,,,-99.99,,2013-07-05 07:33:00,
2013-07-05 00:43:00,65.0,44.0,-100.00,North,3,13.0,23.0,47,-99.99,,,-99.99,,2013-07-05 07:43:00,
2013-07-05 00:53:00,65.0,44.0,-100.00,North,3,13.0,23.0,47,-99.99,,,-99.99,,2013-07-05 07:53:00,
2013-07-05 01:02:00,65.0,44.0,-100.00,North,3,13.0,23.0,47,-99.99,,,-99.99,,2013-07-05 08:02:00,
2013-07-05 01:56:00,63.0,45.0,-100.00,North,-999,-999.0,-999.0,51,-99.99,,,-99.99,,2013-07-05 08:56:00,
2013-07-05 02:05:00,63.0,45.0,-100.00,WNW,301,5.0,11.0,51,-99.99,,,-99.99,,2013-07-05 09:05:00,
2013-07-05 02:13:00,63.0,45.0,-100.00,WNW,301,5.0,11.0,51,-99.99,,,-99.99,,2013-07-05 09:13:00,
2013-07-05 02:24:00,62.0,44.0,-100.00,North,8,2.0,6.0,52,-99.99,,,-99.99,,2013-07-05 09:24:00,
2013-07-05 02:35:00,62.0,44.0,-100.00,North,8,2.0,6.0,52,-99.99,,,-99.99,,2013-07-05 09:35:00,
2013-07-05 02:55:00,60.0,46.0,-100.00,NE,34,5.0,9.0,60,-99.99,,,-99.99,,2013-07-05 09:55:00,
2013-07-05 03:03:00,60.0,46.0,-100.00,NE,34,5.0,9.0,60,-99.99,,,-99.99,,2013-07-05 10:03:00,
2013-07-05 03:38:00,58.0,47.0,-100.00,North,-999,-999.0,-999.0,65,-99.99,,,-99.99,,2013-07-05 10:38:00,
2013-07-05 03:47:00,58.0,46.0,-100.00,SE,141,1.0,5.0,65,-99.99,,,-99.99,,2013-07-05 10:47:00,
2013-07-05 03:57:00,58.0,46.0,-100.00,SE,141,1.0,5.0,65,-99.99,,,-99.99,,2013-07-05 10:57:00,
2013-07-05 04:03:00,58.0,46.0,-100.00,SE,141,1.0,5.0,65,-99.99,,,-99.99,,2013-07-05 11:03:00,
2013-07-05 04:38:00,56.0,46.0,-100.00,North,-999,-999.0,-999.0,68,-99.99,,,-99.99,,2013-07-05 11:38:00,
2013-07-05 04:58:00,56.0,46.0,-100.00,ESE,123,0.0,4.0,68,-99.99,,,-99.99,,2013-07-05 11:58:00,
2013-07-05 05:38:00,56.0,46.0,-100.00,North,-999,-999.0,-999.0,69,-99.99,,,-99.99,,2013-07-05 12:38:00,
2013-07-05 05:50:00,56.0,46.0,-100.00,North,-999,0.0,0.0,69,-99.99,,,-99.99,,2013-07-05 12:50:00,
2013-07-05 05:58:00,56.0,46.0,-100.00,North,-999,0.0,0.0,69,-99.99,,,-99.99,,2013-07-05 12:58:00,
2013-07-05 06:33:00,56.0,46.0,-100.00,NNE,14,3.0,6.0,68,-99.99,,,-99.99,,2013-07-05 13:33:00,
2013-07-05 07:13:00,56.0,46.0,-100.00,NNE,14,3.0,6.0,68,-99.99,,,-99.99,,2013-07-05 14:13:00,
2013-07-05 07:24:00,56.0,46.0,-100.00,NNE,14,3.0,6.0,68,-99.99,,,-99.99,,2013-07-05 14:24:00,
2013-07-05 09:53:00,64.0,48.0,-100.00,SSE,160,3.0,6.0,56,-99.99,,,-99.99,,2013-07-05 16:53:00,
2013-07-05 10:43:00,66.0,48.0,-100.00,South,171,2.0,6.0,52,-99.99,,,-99.99,,2013-07-05 17:43:00,
2013-07-05 10:53:00,70.0,46.0,-100.00,SE,145,3.0,7.0,43,-99.99,,,-99.99,,2013-07-05 17:53:00,
2013-07-05 11:11:00,72.0,45.0,-100.00,SE,126,6.0,11.0,38,-99.99,,,-99.99,,2013-07-05 18:11:00,
2013-07-05 11:22:00,72.0,45.0,-100.00,SE,126,6.0,11.0,38,-99.99,,,-99.99,,2013-07-05 18:22:00,
2013-07-05 11:33:00,73.0,44.0,-100.00,SE,133,7.0,13.0,36,-99.99,,,-99.99,,2013-07-05 18:33:00,
2013-07-05 11:43:00,73.0,44.0,-100.00,SE,133,7.0,13.0,36,-99.99,,,-99.99,,2013-07-05 18:43:00,
2013-07-05 11:53:00,73.0,44.0,-100.00,SE,133,7.0,13.0,36,-99.99,,,-99.99,,2013-07-05 18:53:00,
2013-07-05 12:01:00,74.0,41.0,-100.00,North,-999,-999.0,-999.0,29,-99.99,,,-99.99,,2013-07-05 19:01:00,
2013-07-05 12:12:00,74.0,40.0,-100.00,SW,227,6.0,13.0,29,-99.99,,,-99.99,,2013-07-05 19:12:00,
2013-07-05 12:22:00,74.0,40.0,-100.00,SW,227,6.0,13.0,29,-99.99,,,-99.99,,2013-07-05 19:22:00,
2013-07-05 12:33:00,75.0,39.0,-100.00,WSW,243,7.0,18.0,27,-99.99,,,-99.99,,2013-07-05 19:33:00,
2013-07-05 12:42:00,75.0,39.0,-100.00,WSW,243,7.0,18.0,27,-99.99,,,-99.99,,2013-07-05 19:42:00,
2013-07-05 12:52:00,75.0,40.0,-100.00,WSW,257,7.0,13.0,28,-99.99,,,-99.99,,2013-07-05 19:52:00,
2013-07-05 13:01:00,75.0,40.0,-100.00,WSW,257,7.0,13.0,28,-99.99,,,-99.99,,2013-07-05 20:01:00,
2013-07-05 13:11:00,76.0,41.0,-100.00,SW,226,6.0,13.0,29,-99.99,,,-99.99,,2013-07-05 20:11:00,
2013-07-05 13:22:00,76.0,41.0,-100.00,SW,226,6.0,13.0,29,-99.99,,,-99.99,,2013-07-05 20:22:00,
2013-07-05 13:33:00,76.0,41.0,-100.00,SW,226,6.0,13.0,29,-99.99,,,-99.99,,2013-07-05 20:33:00,
2013-07-05 13:53:00,79.0,41.0,-100.00,SSW,213,10.0,23.0,26,-99.99,,,-99.99,,2013-07-05 20:53:00,
2013-07-05 14:01:00,79.0,41.0,-100.00,SSW,213,10.0,23.0,26,-99.99,,,-99.99,,2013-07-05 21:01:00,
2013-07-05 14:11:00,80.0,39.0,-100.00,SSW,212,11.0,20.0,23,-99.99,,,-99.99,,2013-07-05 21:11:00,
2013-07-05 14:21:00,80.0,39.0,-100.00,SSW,212,11.0,20.0,23,-99.99,,,-99.99,,2013-07-05 21:21:00,
2013-07-05 14:34:00,78.0,38.0,-100.00,SW,234,12.0,23.0,24,-99.99,,,-99.99,,2013-07-05 21:34:00,
2013-07-05 14:42:00,78.0,38.0,-100.00,SW,234,12.0,23.0,24,-99.99,,,-99.99,,2013-07-05 21:42:00,
2013-07-05 14:53:00,80.0,38.0,-100.00,SW,226,13.0,25.0,22,-99.99,,,-99.99,,2013-07-05 21:53:00,
2013-07-05 15:01:00,80.0,38.0,-100.00,SW,226,13.0,25.0,22,-99.99,,,-99.99,,2013-07-05 22:01:00,
2013-07-05 15:11:00,80.0,38.0,-100.00,SW,226,13.0,25.0,22,-99.99,,,-99.99,,2013-07-05 22:11:00,
2013-07-05 15:34:00,82.0,31.0,-100.00,SW,216,14.0,26.0,16,-99.99,,,-99.99,,2013-07-05 22:34:00,
2013-07-05 15:53:00,80.0,34.0,-100.00,SW,229,15.0,30.0,19,-99.99,,,-99.99,,2013-07-05 22:53:00,
2013-07-05 16:02:00,80.0,34.0,-100.00,SW,229,15.0,30.0,19,-99.99,,,-99.99,,2013-07-05 23:02:00,
2013-07-05 16:11:00,80.0,34.0,-100.00,SW,229,15.0,30.0,19,-99.99,,,-99.99,,2013-07-05 23:11:00,
2013-07-05 16:21:00,72.0,41.0,-100.00,NW,323,11.0,22.0,32,-99.99,,,-99.99,,2013-07-05 23:21:00,
2013-07-05 16:32:00,70.0,40.0,-100.00,NW,311,15.0,30.0,33,-99.99,,,-99.99,,2013-07-05 23:32:00,
2013-07-05 16:53:00,72.0,41.0,-100.00,NW,323,11.0,22.0,32,-99.99,,,-99.99,,2013-07-05 23:53:00,
2013-07-05 17:01:00,72.0,41.0,-100.00,NW,323,11.0,22.0,32,-99.99,,,-99.99,,2013-07-06 00:01:00,
2013-07-05 17:11:00,72.0,41.0,-100.00,NW,323,11.0,22.0,32,-99.99,,,-99.99,,2013-07-06 00:11:00,
2013-07-05 17:33:00,74.0,41.0,-100.00,North,-999,-999.0,-999.0,31,-99.99,,,-99.99,,2013-07-06 00:33:00,
2013-07-05 17:42:00,74.0,41.0,-100.00,WNW,298,5.0,10.0,31,-99.99,,,-99.99,,2013-07-06 00:42:00,
2013-07-05 17:53:00,74.0,41.0,-100.00,WNW,298,5.0,10.0,31,-99.99,,,-99.99,,2013-07-06 00:53:00,
2013-07-05 18:12:00,76.0,40.0,-100.00,NW,311,4.0,9.0,27,-99.99,,,-99.99,,2013-07-06 01:12:00,
2013-07-05 18:22:00,76.0,40.0,-100.00,NW,311,4.0,9.0,27,-99.99,,,-99.99,,2013-07-06 01:22:00,
2013-07-05 18:33:00,75.0,40.0,-100.00,NW,305,4.0,8.0,28,-99.99,,,-99.99,,2013-07-06 01:33:00,
2013-07-05 18:42:00,75.0,40.0,-100.00,NW,305,4.0,8.0,28,-99.99,,,-99.99,,2013-07-06 01:42:00,
2013-07-05 18:53:00,77.0,38.0,-100.00,West,261,4.0,10.0,25,-99.99,,,-99.99,,2013-07-06 01:53:00,
2013-07-05 19:02:00,77.0,38.0,-100.00,West,261,4.0,10.0,25,-99.99,,,-99.99,,2013-07-06 02:02:00,
2013-07-05 19:11:00,75.0,42.0,-100.00,NNW,342,7.0,22.0,31,-99.99,,,-99.99,,2013-07-06 02:11:00,
2013-07-05 19:22:00,75.0,42.0,-100.00,NNW,342,7.0,22.0,31,-99.99,,,-99.99,,2013-07-06 02:22:00,
2013-07-05 19:33:00,70.0,45.0,-100.00,NNE,24,17.0,28.0,40,-99.99,,,-99.99,,2013-07-06 02:33:00,
2013-07-05 19:43:00,70.0,45.0,-100.00,NNE,24,17.0,28.0,40,-99.99,,,-99.99,,2013-07-06 02:43:00,
2013-07-05 19:53:00,70.0,45.0,-100.00,NNE,24,17.0,28.0,40,-99.99,,,-99.99,,2013-07-06 02:53:00,
2013-07-05 20:11:00,71.0,44.0,-100.00,North,-999,-999.0,-999.0,37,-99.99,,,-99.99,,2013-07-06 03:11:00,
2013-07-05 20:22:00,71.0,43.0,-100.00,North,350,13.0,22.0,37,-99.99,,,-99.99,,2013-07-06 03:22:00,
2013-07-05 20:34:00,71.0,43.0,-100.00,North,350,13.0,22.0,37,-99.99,,,-99.99,,2013-07-06 03:34:00,
2013-07-05 21:02:00,68.0,44.0,-100.00,North,-999,-999.0,-999.0,43,-99.99,,,-99.99,,2013-07-06 04:02:00,
2013-07-05 21:12:00,68.0,45.0,-100.00,NNE,21,12.0,20.0,43,-99.99,,,-99.99,,2013-07-06 04:12:00,
2013-07-05 21:22:00,67.0,44.0,-100.00,NNE,28,9.0,16.0,43,-99.99,,,-99.99,,2013-07-06 04:22:00,
2013-07-05 21:33:00,67.0,44.0,-100.00,NNE,28,9.0,16.0,43,-99.99,,,-99.99,,2013-07-06 04:33:00,
2013-07-05 21:43:00,67.0,45.0,-100.00,NE,40,3.0,13.0,45,-99.99,,,-99.99,,2013-07-06 04:43:00,
2013-07-05 21:53:00,67.0,45.0,-100.00,NE,40,3.0,13.0,45,-99.99,,,-99.99,,2013-07-06 04:53:00,
2013-07-05 22:02:00,67.0,45.0,-100.00,NE,40,3.0,13.0,45,-99.99,,,-99.99,,2013-07-06 05:02:00,
2013-07-05 22:12:00,64.0,46.0,-100.00,North,-999,-999.0,-999.0,52,-99.99,,,-99.99,,2013-07-06 05:12:00,
2013-07-05 22:33:00,64.0,46.0,-100.00,ENE,61,4.0,7.0,52,-99.99,,,-99.99,,2013-07-06 05:33:00,
2013-07-05 22:42:00,63.0,47.0,-100.00,SSE,148,5.0,10.0,56,-99.99,,,-99.99,,2013-07-06 05:42:00,
2013-07-05 22:53:00,63.0,47.0,-100.00,SSE,148,5.0,10.0,56,-99.99,,,-99.99,,2013-07-06 05:53:00,
2013-07-05 23:01:00,63.0,47.0,-100.00,SSE,148,5.0,10.0,56,-99.99,,,-99.99,,2013-07-06 06:01:00,
2013-07-05 23:34:00,62.0,46.0,-100.00,North,-999,-999.0,-999.0,56,-99.99,,,-99.99,,2013-07-06 06:34:00,
2013-07-05 23:43:00,62.0,46.0,-100.00,West,272,0.0,4.0,56,-99.99,,,-99.99,,2013-07-06 06:43:00,
2013-07-05 23:53:00,62.0,46.0,-100.00,West,272,0.0,4.0,56,-99.99,,,-99.99,,2013-07-06 06:53:00,